Time;durP1;ratioP1;P1;durP2;ratioP2;P2;SDS_P1;SDS_P2;PMS_P1;PMS_P2;Temp;Humidity;BMP_temperature;BMP_pressure;BME280_temperature;BME280_humidity;BME280_pressure;Samples;Min_cycle;Max_cycle;Signal;HPM_P1;HPM_P2
2023/12/10 00:01:19;;;;;;;;;;;;;;;;;;5055324;28;20118;-77
2023/12/10 00:03:45;;;;;;;34.28;4.05;;;;;;;;;;5056437;28;19921;-76
2023/12/10 00:06:11;;;;;;;;;;;;;;;;;;5073332;28;20044;-76
2023/12/10 00:08:37;;;;;;;29.50;4.43;;;;;;;;;;5052951;28;19921;-76
2023/12/10 00:11:03;;;;;;;;;;;;;;;;;;5055743;28;20504;-77
2023/12/10 00:13:30;;;;;;;31.05;3.97;;;;;;;;;;5054697;28;19928;-77
2023/12/10 00:15:55;;;;;;;;;;;;;;;;;;5066325;28;20132;-77
2023/12/10 00:18:22;;;;;;;25.77;3.75;;;;;;;;;;5073180;28;19959;-77
2023/12/10 00:20:48;;;;;;;34.90;4.72;;;;;;;;;;5055826;28;20079;-76
2023/12/10 00:23:15;;;;;;;27.25;4.07;;;;;;;;;;5055268;28;20498;-76
2023/12/10 00:25:45;;;;;;;28.58;5.32;;;;;;;;;;5055125;28;20045;-76
2023/12/10 00:28:11;;;;;;;33.05;4.18;;;;;;;;;;5053036;28;20111;-77
2023/12/10 00:30:37;;;;;;;;;;;;;;;;;;5056501;28;20052;-77
2023/12/10 00:33:03;;;;;;;30.33;4.72;;;;;;;;;;5054812;28;19920;-77
2023/12/10 00:35:29;;;;;;;;;;;;;;;;;;5056625;28;20044;-77
2023/12/10 00:37:55;;;;;;;27.00;4.03;;;;;;;;;;5055786;28;20007;-77
2023/12/10 00:40:21;;;;;;;;;;;;;;;;;;5055639;28;20136;-77
2023/12/10 00:42:48;;;;;;;30.50;4.00;;;;;;;;;;5048203;28;20010;-77
2023/12/10 00:45:14;;;;;;;29.80;4.45;;;;;;;;;;5069104;28;20041;-77
2023/12/10 00:47:40;;;;;;;;;;;;;;;;;;5055264;28;20056;-76
2023/12/10 00:50:06;;;;;;;30.02;4.03;;;;;;;;;;5055106;28;19924;-77
2023/12/10 00:52:32;;;;;;;30.63;4.85;;;;;;;;;;5022185;28;20374;-77
2023/12/10 00:54:58;;;;;;;;;;;;;;;;;;5038458;28;20426;-77
2023/12/10 00:57:24;;;;;;;26.60;4.60;;;;;;;;;;5053905;28;19927;-77
2023/12/10 00:59:51;;;;;;;28.42;4.00;;;;;;;;;;5073081;28;20051;-77
2023/12/10 01:02:17;;;;;;;32.83;4.88;;;;;;;;;;5054448;28;20044;-77
2023/12/10 01:04:43;;;;;;;;;;;;;;;;;;5073707;28;20075;-77
2023/12/10 01:07:11;;;;;;;28.75;3.80;;;;;;;;;;5055019;28;19920;-76
2023/12/10 01:09:38;;;;;;;20.35;3.78;;;;;;;;;;5071413;28;20087;-77
2023/12/10 01:12:05;;;;;;;25.52;4.05;;;;;;;;;;5053457;28;20076;-78
2023/12/10 01:14:32;;;;;;;19.13;3.33;;;;;;;;;;5072826;28;20375;-76
2023/12/10 01:16:58;;;;;;;;;;;;;;;;;;5072720;28;20127;-77
2023/12/10 01:19:24;;;;;;;24.08;3.58;;;;;;;;;;5054037;28;20400;-77
2023/12/10 01:21:50;;;;;;;32.85;4.43;;;;;;;;;;5072916;28;20125;-77
2023/12/10 01:24:16;;;;;;;;;;;;;;;;;;5054915;28;20075;-77
2023/12/10 01:26:43;;;;;;;32.30;4.07;;;;;;;;;;5038335;28;19928;-77
2023/12/10 01:29:09;;;;;;;20.90;3.28;;;;;;;;;;5071049;28;20037;-77
2023/12/10 01:31:39;;;;;;;21.15;3.40;;;;;;;;;;5054664;28;20053;-77
2023/12/10 01:34:05;;;;;;;23.38;4.32;;;;;;;;;;5054958;28;20048;-78
2023/12/10 01:36:31;;;;;;;;;;;;;;;;;;5071879;28;20037;-77
2023/12/10 01:38:57;;;;;;;26.25;3.63;;;;;;;;;;5027451;28;20370;-77
2023/12/10 01:41:26;;;;;;;;;;;;;;;;;;5037993;28;20044;-78
2023/12/10 01:43:53;;;;;;;35.17;3.75;;;;;;;;;;5037225;28;19920;-77
2023/12/10 01:46:21;;;;;;;24.90;4.15;;;;;;;;;;5071550;28;20058;-77
2023/12/10 01:48:50;;;;;;;26.83;4.10;;;;;;;;;;5054440;28;20044;-77
2023/12/10 01:51:16;;;;;;;32.63;3.97;;;;;;;;;;5071383;28;20150;-77
2023/12/10 01:53:42;;;;;;;;;;;;;;;;;;5054935;28;20045;-77
2023/12/10 01:56:09;;;;;;;29.27;3.45;;;;;;;;;;5054223;28;19928;-78
2023/12/10 01:58:36;;;;;;;25.70;4.07;;;;;;;;;;5071029;28;20131;-77
2023/12/10 02:01:05;;;;;;;24.85;4.05;;;;;;;;;;5036334;28;20059;-78
2023/12/10 02:03:32;;;;;;;24.23;4.68;;;;;;;;;;5053842;28;20163;-77
2023/12/10 02:05:58;;;;;;;22.52;4.07;;;;;;;;;;5054221;28;20052;-77
2023/12/10 02:08:24;;;;;;;;;;;;;;;;;;5071672;28;20402;-77
2023/12/10 02:10:50;;;;;;;25.35;3.65;;;;;;;;;;5054533;28;19927;-78
2023/12/10 02:13:17;;;;;;;;;;;;;;;;;;5053436;28;20056;-77
2023/12/10 02:15:43;;;;;;;22.35;3.75;;;;;;;;;;5037912;28;19921;-77
2023/12/10 02:18:09;;;;;;;25.65;4.32;;;;;;;;;;5053506;28;20480;-78
2023/12/10 02:20:35;;;;;;;;;;;;;;;;;;5054314;28;20045;-77
2023/12/10 02:23:07;;;;;;;33.15;5.32;;;;;;;;;;5025582;28;19920;-78
2023/12/10 02:25:34;;;;;;;27.85;3.85;;;;;;;;;;5071294;28;20055;-77
2023/12/10 02:28:01;;;;;;;30.10;3.88;;;;;;;;;;5049317;28;20053;-78
2023/12/10 02:30:27;;;;;;;28.50;4.78;;;;;;;;;;5050244;28;20118;-78
2023/12/10 02:32:54;;;;;;;34.00;4.32;;;;;;;;;;5050068;28;20045;-78
2023/12/10 02:35:20;;;;;;;;;;;;;;;;;;5033851;28;20123;-78
2023/12/10 02:37:46;;;;;;;34.30;4.57;;;;;;;;;;5035149;28;19928;-78
2023/12/10 02:40:12;;;;;;;;;;;;;;;;;;5070627;28;20045;-78
2023/12/10 02:42:38;;;;;;;41.63;4.27;;;;;;;;;;5052041;28;19928;-78
2023/12/10 02:45:04;;;;;;;25.35;4.38;;;;;;;;;;5042405;28;20049;-78
2023/12/10 02:47:30;;;;;;;29.67;4.55;;;;;;;;;;5036301;28;20041;-78
2023/12/10 02:49:56;;;;;;;;;;;;;;;;;;5037649;28;20075;-78
2023/12/10 02:52:23;;;;;;;49.38;6.35;;;;;;;;;;5053036;28;19920;-78
2023/12/10 02:54:49;;;;;;;28.38;3.92;;;;;;;;;;5071570;28;20093;-78
2023/12/10 02:57:15;;;;;;;39.42;6.00;;;;;;;;;;5070163;28;20502;-78
2023/12/10 02:59:41;;;;;;;;;;;;;;;;;;5054303;28;20067;-78
2023/12/10 03:02:07;;;;;;;26.98;3.92;;;;;;;;;;5053469;28;19928;-77
2023/12/10 03:04:33;;;;;;;;;;;;;;;;;;5053650;28;20064;-78
2023/12/10 03:06:59;;;;;;;22.63;3.72;;;;;;;;;;5053394;28;19920;-78
2023/12/10 03:09:25;;;;;;;;;;;;;;;;;;5070507;28;20115;-78
2023/12/10 03:11:51;;;;;;;39.13;5.38;;;;;;;;;;5033338;28;19921;-77
2023/12/10 03:14:17;;;;;;;;;;;;;;;;;;5033261;28;20510;-79
2023/12/10 03:16:43;;;;;;;31.33;4.57;;;;;;;;;;5043580;28;20050;-78
2023/12/10 03:19:10;;;;;;;35.35;4.78;;;;;;;;;;5036101;28;20128;-78
2023/12/10 03:21:36;;;;;;;32.45;4.70;;;;;;;;;;5049470;28;20052;-77
2023/12/10 03:24:02;;;;;;;;;;;;;;;;;;5038444;28;20048;-77
2023/12/10 03:26:28;;;;;;;27.67;4.40;;;;;;;;;;5052827;28;19943;-77
2023/12/10 03:28:54;;;;;;;;;;;;;;;;;;5052981;28;20056;-78
2023/12/10 03:31:20;;;;;;;28.90;3.90;;;;;;;;;;5052673;28;20380;-78
2023/12/10 03:33:46;;;;;;;;;;;;;;;;;;5041299;28;20054;-78
2023/12/10 03:36:13;;;;;;;29.98;4.47;;;;;;;;;;5054051;28;19920;-77
2023/12/10 03:38:39;;;;;;;26.92;3.80;;;;;;;;;;5028492;28;20577;-78
2023/12/10 03:41:05;;;;;;;28.55;3.63;;;;;;;;;;5057445;28;20045;-78
2023/12/10 03:43:31;;;;;;;;;;;;;;;;;;5039610;28;20375;-78
2023/12/10 03:45:58;;;;;;;25.55;5.00;;;;;;;;;;5057208;28;19927;-78
2023/12/10 03:48:23;;;;;;;;;;;;;;;;;;5056365;28;20048;-78
2023/12/10 03:50:51;;;;;;;23.80;3.42;;;;;;;;;;5057220;28;19935;-78
2023/12/10 03:53:17;;;;;;;26.10;3.40;;;;;;;;;;5056829;28;20057;-78
2023/12/10 03:55:43;;;;;;;24.10;3.15;;;;;;;;;;5056656;28;20124;-79
2023/12/10 03:58:09;;;;;;;;;;;;;;;;;;5056355;28;20044;-78
2023/12/10 04:00:35;;;;;;;26.50;3.53;;;;;;;;;;5054770;28;19920;-78
2023/12/10 04:03:01;;;;;;;;;;;;;;;;;;5072974;28;20056;-78
2023/12/10 04:05:27;;;;;;;23.58;3.50;;;;;;;;;;5056396;28;20262;-78
2023/12/10 04:07:53;;;;;;;;;;;;;;;;;;5073640;28;20044;-78
2023/12/10 04:10:19;;;;;;;24.27;3.70;;;;;;;;;;5056692;28;19921;-78
2023/12/10 04:12:45;;;;;;;;;;;;;;;;;;5054019;28;20497;-77
2023/12/10 04:15:11;;;;;;;25.75;3.53;;;;;;;;;;5053142;28;19927;-78
2023/12/10 04:17:37;;;;;;;;;;;;;;;;;;5035957;28;20088;-78
2023/12/10 04:20:05;;;;;;;23.05;3.53;;;;;;;;;;5043097;28;20004;-77
2023/12/10 04:22:31;;;;;;;23.88;3.90;;;;;;;;;;5055276;28;20064;-77
2023/12/10 04:24:57;;;;;;;;;;;;;;;;;;5037866;28;20051;-78
2023/12/10 04:27:23;;;;;;;22.52;3.40;;;;;;;;;;5034384;28;19992;-78
2023/12/10 04:29:49;;;;;;;;;;;;;;;;;;5036571;28;20053;-77
2023/12/10 04:32:15;;;;;;;29.40;4.40;;;;;;;;;;5051773;28;19927;-78
2023/12/10 04:34:41;;;;;;;;;;;;;;;;;;5048580;28;20045;-77
2023/12/10 04:37:07;;;;;;;23.50;3.25;;;;;;;;;;5016098;28;19931;-77
2023/12/10 04:39:33;;;;;;;;;;;;;;;;;;5032540;28;20554;-77
2023/12/10 04:41:59;;;;;;;25.80;3.47;;;;;;;;;;5051453;28;20000;-78
2023/12/10 04:44:25;;;;;;;;;;;;;;;;;;5042976;28;20050;-77
2023/12/10 04:46:51;;;;;;;23.50;3.35;;;;;;;;;;5025711;28;19976;-78
2023/12/10 04:49:17;;;;;;;20.95;3.33;;;;;;;;;;5052404;28;20045;-77
2023/12/10 04:51:43;;;;;;;;;;;;;;;;;;5052344;28;20076;-77
2023/12/10 04:54:09;;;;;;;18.58;3.47;;;;;;;;;;5052491;28;19971;-78
2023/12/10 04:56:35;;;;;;;22.02;3.63;;;;;;;;;;5052925;28;20084;-77
2023/12/10 04:59:01;;;;;;;27.20;3.92;;;;;;;;;;5067963;28;20091;-78
2023/12/10 05:01:27;;;;;;;32.47;4.57;;;;;;;;;;5035331;28;20068;-77
2023/12/10 05:03:53;;;;;;;32.38;3.72;;;;;;;;;;5035035;28;20045;-78
2023/12/10 05:06:19;;;;;;;26.90;4.30;;;;;;;;;;5052140;28;20052;-79
2023/12/10 05:08:45;;;;;;;;;;;;;;;;;;5031963;28;20140;-77
2023/12/10 05:11:11;;;;;;;34.25;4.07;;;;;;;;;;5050449;28;20011;-78
2023/12/10 05:13:37;;;;;;;;;;;;;;;;;;5051478;28;20053;-77
2023/12/10 05:16:04;;;;;;;30.08;4.05;;;;;;;;;;5048900;28;19978;-78
2023/12/10 05:18:29;;;;;;;;;;;;;;;;;;5031996;28;20083;-78
2023/12/10 05:20:56;;;;;;;24.63;3.00;;;;;;;;;;5032072;28;20350;-77
2023/12/10 05:23:21;;;;;;;;;;;;;;;;;;5032430;28;20076;-77
2023/12/10 05:25:48;;;;;;;24.27;3.88;;;;;;;;;;5023333;28;20387;-78
2023/12/10 05:28:14;;;;;;;;;;;;;;;;;;5040425;28;20099;-78
2023/12/10 05:30:40;;;;;;;25.20;4.38;;;;;;;;;;5014850;28;20011;-77
2023/12/10 05:33:06;;;;;;;24.73;4.78;;;;;;;;;;5038742;28;20084;-78
2023/12/10 05:35:34;;;;;;;25.85;4.82;;;;;;;;;;5068541;28;20056;-78
2023/12/10 05:38:00;;;;;;;28.33;4.28;;;;;;;;;;5035086;28;20041;-79
2023/12/10 05:40:26;;;;;;;33.88;5.28;;;;;;;;;;5068220;28;20045;-77
2023/12/10 05:42:53;;;;;;;25.75;4.40;;;;;;;;;;5057902;28;20091;-80
2023/12/10 05:45:19;;;;;;;33.42;4.38;;;;;;;;;;5067949;28;20055;-78
2023/12/10 05:47:45;;;;;;;30.40;4.80;;;;;;;;;;5032666;28;20049;-78
2023/12/10 05:50:11;;;;;;;20.50;5.25;;;;;;;;;;5031915;28;20118;-78
2023/12/10 05:52:37;;;;;;;;;;;;;;;;;;5031438;28;20406;-80
2023/12/10 05:55:04;;;;;;;31.83;5.22;;;;;;;;;;5032070;28;19921;-79
2023/12/10 05:57:30;;;;;;;24.55;4.88;;;;;;;;;;5030457;28;20479;-78
2023/12/10 05:59:56;;;;;;;24.77;4.35;;;;;;;;;;5031014;28;20077;-79
2023/12/10 06:02:22;;;;;;;22.10;4.00;;;;;;;;;;5014238;28;20053;-79
2023/12/10 06:04:48;;;;;;;21.85;4.13;;;;;;;;;;5015829;28;20361;-78
2023/12/10 06:07:14;;;;;;;;;;;;;;;;;;5035056;28;20403;-78
2023/12/10 06:09:40;;;;;;;23.08;3.33;;;;;;;;;;5049439;28;20449;-79
2023/12/10 06:12:07;;;;;;;21.65;3.10;;;;;;;;;;5066904;28;20052;-79
2023/12/10 06:14:33;;;;;;;;;;;;;;;;;;5056925;28;20040;-78
2023/12/10 06:16:59;;;;;;;15.52;3.30;;;;;;;;;;5033508;28;20162;-78
2023/12/10 06:19:25;;;;;;;23.73;3.97;;;;;;;;;;5050930;28;20045;-78
2023/12/10 06:21:51;;;;;;;;;;;;;;;;;;5034414;28;20052;-79
2023/12/10 06:24:17;;;;;;;15.50;3.47;;;;;;;;;;5047343;28;19932;-80
2023/12/10 06:26:43;;;;;;;;;;;;;;;;;;5031440;28;20049;-80
2023/12/10 06:29:09;;;;;;;15.40;2.95;;;;;;;;;;5041650;28;19920;-78
2023/12/10 06:31:35;;;;;;;;;;;;;;;;;;5034346;28;20449;-78
2023/12/10 06:34:01;;;;;;;16.52;3.22;;;;;;;;;;5033638;28;19920;-79
2023/12/10 06:36:27;;;;;;;16.83;3.42;;;;;;;;;;5018281;28;20052;-78
2023/12/10 06:38:53;;;;;;;;;;;;;;;;;;5033975;28;20040;-79
2023/12/10 06:41:20;;;;;;;24.83;4.22;;;;;;;;;;5018011;28;19920;-79
2023/12/10 06:43:46;;;;;;;23.83;3.97;;;;;;;;;;5032851;28;20049;-79
2023/12/10 06:46:13;;;;;;;20.25;3.38;;;;;;;;;;5045536;28;20487;-80
2023/12/10 06:48:39;;;;;;;19.50;3.92;;;;;;;;;;5034178;28;20048;-79
2023/12/10 06:51:05;;;;;;;;;;;;;;;;;;5051010;28;20045;-79
2023/12/10 06:53:34;;;;;;;20.70;3.83;;;;;;;;;;5052947;28;19924;-79
2023/12/10 06:56:00;;;;;;;27.80;4.93;;;;;;;;;;5037070;28;20048;-79
2023/12/10 06:58:26;;;;;;;25.52;3.40;;;;;;;;;;5036240;28;20059;-78
2023/12/10 07:00:56;;;;;;;32.38;4.65;;;;;;;;;;5036588;28;20091;-79
2023/12/10 07:03:22;;;;;;;33.47;4.22;;;;;;;;;;5050130;28;20444;-79
2023/12/10 07:05:48;;;;;;;26.52;4.38;;;;;;;;;;5050026;28;20049;-79
2023/12/10 07:08:14;;;;;;;;;;;;;;;;;;5054040;28;20080;-79
2023/12/10 07:10:40;;;;;;;24.83;4.35;;;;;;;;;;5037910;28;19971;-78
2023/12/10 07:13:06;;;;;;;;;;;;;;;;;;5023655;28;20123;-81
2023/12/10 07:15:32;;;;;;;23.10;3.10;;;;;;;;;;5056868;28;20535;-79
2023/12/10 07:17:58;;;;;;;;;;;;;;;;;;5053276;28;20048;-79
2023/12/10 07:20:24;;;;;;;22.48;3.58;;;;;;;;;;5040551;28;20294;-79
2023/12/10 07:22:50;;;;;;;24.02;3.78;;;;;;;;;;5040360;28;20041;-79
2023/12/10 07:25:18;;;;;;;12.57;2.80;;;;;;;;;;5073612;28;20254;-78
2023/12/10 07:27:45;;;;;;;20.35;3.78;;;;;;;;;;5068567;28;20411;-80
2023/12/10 07:30:11;;;;;;;21.58;3.63;;;;;;;;;;5036854;28;20045;-78
2023/12/10 07:32:37;;;;;;;19.05;3.80;;;;;;;;;;5065793;28;20049;-78
2023/12/10 07:35:03;;;;;;;;;;;;;;;;;;5070359;28;20045;-79
2023/12/10 07:37:29;;;;;;;14.43;2.42;;;;;;;;;;5052706;28;19927;-79
2023/12/10 07:39:55;;;;;;;24.08;3.20;;;;;;;;;;5040536;28;20473;-78
2023/12/10 07:42:21;;;;;;;;;;;;;;;;;;5066312;28;20402;-79
2023/12/10 07:44:47;;;;;;;20.88;3.67;;;;;;;;;;5045624;28;19925;-79
2023/12/10 07:47:13;;;;;;;;;;;;;;;;;;5033203;28;20051;-79
2023/12/10 07:49:42;;;;;;;20.17;2.78;;;;;;;;;;5034518;28;20019;-92
2023/12/10 07:52:08;;;;;;;18.67;3.70;;;;;;;;;;5017414;28;20051;-80
2023/12/10 07:54:34;;;;;;;;;;;;;;;;;;5030345;28;20140;-79
2023/12/10 07:57:00;;;;;;;21.08;3.33;;;;;;;;;;5052687;28;20354;-81
2023/12/10 07:59:26;;;;;;;;;;;;;;;;;;5070429;28;20044;-79
2023/12/10 08:01:52;;;;;;;16.35;3.58;;;;;;;;;;5053040;28;20016;-82
2023/12/10 08:04:18;;;;;;;23.15;3.40;;;;;;;;;;5068781;28;20474;-81
2023/12/10 08:06:45;;;;;;;;;;;;;;;;;;5037730;28;20053;-80
2023/12/10 08:09:11;;;;;;;22.67;3.70;;;;;;;;;;5049324;28;20028;-80
2023/12/10 08:11:37;;;;;;;27.48;5.00;;;;;;;;;;5033638;28;20427;-80
2023/12/10 08:14:04;;;;;;;15.90;2.80;;;;;;;;;;5031945;28;20049;-82
2023/12/10 08:16:30;;;;;;;24.25;2.72;;;;;;;;;;5016604;28;20056;-80
2023/12/10 08:18:57;;;;;;;18.58;3.10;;;;;;;;;;5032509;28;20052;-80
2023/12/10 08:21:23;;;;;;;15.32;3.25;;;;;;;;;;5033407;28;20491;-81
2023/12/10 08:23:49;;;;;;;14.30;2.67;;;;;;;;;;5023956;28;20056;-80
2023/12/10 08:26:15;;;;;;;16.83;2.80;;;;;;;;;;5032947;28;20045;-80
2023/12/10 08:28:41;;;;;;;;;;;;;;;;;;5023469;28;20063;-78
2023/12/10 08:31:07;;;;;;;19.13;3.13;;;;;;;;;;5052579;28;20362;-79
2023/12/10 08:33:33;;;;;;;;;;;;;;;;;;5069967;28;20041;-78
2023/12/10 08:35:59;;;;;;;21.05;3.20;;;;;;;;;;5052596;28;19921;-79
2023/12/10 08:38:26;;;;;;;18.45;2.55;;;;;;;;;;5069306;28;20136;-79
2023/12/10 08:40:52;;;;;;;20.92;3.72;;;;;;;;;;5019591;28;20041;-78
2023/12/10 08:43:20;;;;;;;;;;;;;;;;;;5068415;28;20045;-78
2023/12/10 08:45:46;;;;;;;17.02;3.47;;;;;;;;;;5052075;28;19921;-79
2023/12/10 08:48:12;;;;;;;;;;;;;;;;;;5035066;28;20088;-77
2023/12/10 08:50:38;;;;;;;26.42;3.92;;;;;;;;;;5069091;28;19974;-78
2023/12/10 08:53:04;;;;;;;;;;;;;;;;;;5035700;28;20080;-78
2023/12/10 08:55:30;;;;;;;18.02;3.63;;;;;;;;;;5036082;28;19999;-78
2023/12/10 08:57:56;;;;;;;;;;;;;;;;;;5051862;28;20131;-81
2023/12/10 09:00:22;;;;;;;36.63;4.90;;;;;;;;;;5052201;28;20007;-78
2023/12/10 09:02:48;;;;;;;;;;;;;;;;;;5052411;28;20085;-78
2023/12/10 09:05:14;;;;;;;17.40;3.45;;;;;;;;;;5051468;28;19967;-78
2023/12/10 09:07:40;;;;;;;;;;;;;;;;;;5036056;28;20501;-78
2023/12/10 09:10:06;;;;;;;29.52;4.32;;;;;;;;;;5049966;28;19960;-80
2023/12/10 09:12:32;;;;;;;;;;;;;;;;;;5018861;28;20044;-80
2023/12/10 09:14:58;;;;;;;24.83;4.35;;;;;;;;;;5052111;28;20373;-83
2023/12/10 09:17:25;;;;;;;31.65;4.35;;;;;;;;;;5018443;28;20565;-79
2023/12/10 09:19:51;;;;;;;26.98;3.83;;;;;;;;;;5018922;28;20135;-79
2023/12/10 09:22:17;;;;;;;;;;;;;;;;;;5031592;28;21429;-80
2023/12/10 09:24:43;;;;;;;28.45;4.35;;;;;;;;;;5032114;28;19921;-80
2023/12/10 09:27:09;;;;;;;;;;;;;;;;;;5043511;28;20880;-80
2023/12/10 09:29:39;;;;;;;27.52;4.60;;;;;;;;;;5066101;28;19928;-79
2023/12/10 09:32:09;;;;;;;35.78;4.68;;;;;;;;;;5047621;28;20142;-78
2023/12/10 09:34:35;;;;;;;35.75;4.75;;;;;;;;;;5048445;28;20041;-79
2023/12/10 09:37:02;;;;;;;35.83;5.35;;;;;;;;;;5048058;28;20125;-83
2023/12/10 09:39:28;;;;;;;35.50;5.70;;;;;;;;;;5031643;28;20046;-79
2023/12/10 09:41:54;;;;;;;45.50;5.05;;;;;;;;;;5014904;28;20486;-80
2023/12/10 09:44:20;;;;;;;;;;;;;;;;;;5014743;28;20049;-81
2023/12/10 09:46:46;;;;;;;27.65;5.63;;;;;;;;;;5031494;28;19932;-78
2023/12/10 09:49:12;;;;;;;;;;;;;;;;;;5056580;28;20483;-79
2023/12/10 09:51:38;;;;;;;38.72;4.53;;;;;;;;;;5039992;28;19975;-79
2023/12/10 09:54:04;;;;;;;;;;;;;;;;;;5031965;28;20041;-81
2023/12/10 09:56:30;;;;;;;27.50;5.18;;;;;;;;;;5015257;28;20278;-79
2023/12/10 09:58:56;;;;;;;;;;;;;;;;;;5021833;28;20041;-79
2023/12/10 10:01:22;;;;;;;33.05;5.00;;;;;;;;;;5066669;28;19996;-79
2023/12/10 10:03:48;;;;;;;;;;;;;;;;;;5035374;28;20052;-78
2023/12/10 10:06:15;;;;;;;27.20;3.70;;;;;;;;;;5066546;28;19924;-79
2023/12/10 10:08:41;;;;;;;37.40;5.05;;;;;;;;;;5033342;28;20047;-79
2023/12/10 10:11:07;;;;;;;43.83;5.22;;;;;;;;;;5033586;28;20057;-79
2023/12/10 10:13:34;;;;;;;33.08;5.10;;;;;;;;;;5033711;28;20037;-78
2023/12/10 10:16:10;;;;;;;30.50;5.60;;;;;;;;;;5065478;28;20053;-78
2023/12/10 10:18:41;;;;;;;42.23;6.60;;;;;;;;;;5034200;28;20123;-78
2023/12/10 10:21:07;;;;;;;33.50;5.40;;;;;;;;;;5044536;28;20506;-78
2023/12/10 10:23:33;;;;;;;28.25;5.10;;;;;;;;;;5047815;28;20479;-77
2023/12/10 10:25:59;;;;;;;34.00;5.93;;;;;;;;;;5052088;28;20095;-79
2023/12/10 10:28:25;;;;;;;36.20;4.70;;;;;;;;;;5042233;28;20107;-79
2023/12/10 10:30:51;;;;;;;;;;;;;;;;;;5073283;28;20088;-78
2023/12/10 10:33:17;;;;;;;35.40;4.90;;;;;;;;;;5052435;28;19964;-78
2023/12/10 10:35:43;;;;;;;;;;;;;;;;;;5036874;28;20070;-79
2023/12/10 10:38:10;;;;;;;43.53;5.35;;;;;;;;;;5045172;28;20007;-79
2023/12/10 10:40:36;;;;;;;29.92;5.53;;;;;;;;;;5050423;28;20460;-78
2023/12/10 10:43:02;;;;;;;41.78;5.78;;;;;;;;;;5045360;28;20076;-79
2023/12/10 10:45:29;;;;;;;34.10;4.47;;;;;;;;;;5005091;28;20045;-78
2023/12/10 10:47:55;;;;;;;34.53;4.72;;;;;;;;;;5083999;28;20048;-79
2023/12/10 10:50:22;;;;;;;32.30;4.57;;;;;;;;;;5048501;28;20049;-79
2023/12/10 10:52:48;;;;;;;28.98;5.22;;;;;;;;;;5082547;28;20056;-79
2023/12/10 10:55:14;;;;;;;;;;;;;;;;;;5068956;28;20135;-80
2023/12/10 10:57:40;;;;;;;29.48;4.72;;;;;;;;;;5052466;28;20015;-79
2023/12/10 11:00:20;;;;;;;30.05;4.70;;;;;;;;;;5018762;28;20106;-79
2023/12/10 11:02:47;;;;;;;36.28;4.32;;;;;;;;;;5035572;28;20049;-78
2023/12/10 11:05:13;;;;;;;40.13;5.10;;;;;;;;;;5036085;28;20091;-78
2023/12/10 11:07:41;;;;;;;28.45;4.13;;;;;;;;;;5049725;28;20144;-78
2023/12/10 11:10:07;;;;;;;28.38;4.38;;;;;;;;;;5030281;28;20548;-78
2023/12/10 11:12:43;;;;;;;31.70;4.78;;;;;;;;;;5031399;28;20073;-78
2023/12/10 11:15:23;;;;;;;31.23;4.25;;;;;;;;;;5052029;28;20076;-79
2023/12/10 11:17:50;;;;;;;33.13;6.50;;;;;;;;;;5050776;28;20041;-79
2023/12/10 11:20:36;;;;;;;35.30;4.97;;;;;;;;;;5051583;28;20131;-78
2023/12/10 11:23:06;;;;;;;20.80;3.60;;;;;;;;;;5050002;28;20053;-80
2023/12/10 11:25:33;;;;;;;26.40;4.50;;;;;;;;;;5036952;28;20041;-78
2023/12/10 11:28:01;;;;;;;40.90;4.50;;;;;;;;;;5045053;28;20059;-78
2023/12/10 11:30:27;;;;;;;23.77;4.72;;;;;;;;;;5077288;28;20094;-79
2023/12/10 11:32:54;;;;;;;31.13;4.82;;;;;;;;;;5034420;28;20064;-78
2023/12/10 11:35:20;;;;;;;32.80;4.57;;;;;;;;;;5031263;28;20081;-78
2023/12/10 11:37:46;;;;;;;25.90;3.92;;;;;;;;;;5058671;28;20087;-78
2023/12/10 11:40:12;;;;;;;;;;;;;;;;;;5033447;28;20398;-81
2023/12/10 11:42:38;;;;;;;23.65;4.28;;;;;;;;;;5031688;28;19982;-78
2023/12/10 11:45:04;;;;;;;;;;;;;;;;;;5033741;28;20041;-78
2023/12/10 11:47:31;;;;;;;33.90;4.30;;;;;;;;;;5044727;28;19925;-80
2023/12/10 11:49:57;;;;;;;31.00;3.88;;;;;;;;;;5030651;28;20573;-79
2023/12/10 11:52:23;;;;;;;24.92;3.90;;;;;;;;;;5030385;28;20136;-78
2023/12/10 11:54:49;;;;;;;;;;;;;;;;;;5034681;28;20551;-79
2023/12/10 11:57:16;;;;;;;26.73;4.00;;;;;;;;;;5041991;28;20095;-81
2023/12/10 11:59:46;;;;;;;25.35;3.90;;;;;;;;;;5060872;28;20127;-79
2023/12/10 12:02:14;;;;;;;28.73;4.13;;;;;;;;;;5072737;28;20048;-77
2023/12/10 12:04:40;;;;;;;28.27;4.30;;;;;;;;;;5082624;28;20053;-76
2023/12/10 12:07:07;;;;;;;;;;;;;;;;;;5053641;28;20049;-77
2023/12/10 12:09:33;;;;;;;27.40;3.53;;;;;;;;;;5052679;28;19920;-76
2023/12/10 12:12:00;;;;;;;31.98;4.40;;;;;;;;;;5053751;28;20079;-81
2023/12/10 12:14:26;;;;;;;27.70;4.45;;;;;;;;;;5032476;28;20049;-82
2023/12/10 12:31:08;;;;;;;22.08;3.25;;;;;;;;;;5152825;27;20106;-79
2023/12/10 12:33:34;;;;;;;;;;;;;;;;;;5128937;27;20125;-78
2023/12/10 12:36:00;;;;;;;26.17;4.82;;;;;;;;;;5125792;27;20010;-78
2023/12/10 12:38:26;;;;;;;;;;;;;;;;;;5113422;27;20411;-78
2023/12/10 12:40:52;;;;;;;25.13;3.30;;;;;;;;;;5148309;27;19919;-78
2023/12/10 12:43:18;;;;;;;;;;;;;;;;;;5113005;27;20061;-79
2023/12/10 12:45:44;;;;;;;17.33;3.08;;;;;;;;;;5147872;27;19927;-79
2023/12/10 12:48:10;;;;;;;22.08;3.15;;;;;;;;;;5129714;27;20092;-77
2023/12/10 12:50:38;;;;;;;;;;;;;;;;;;5096499;27;20424;-77
2023/12/10 12:53:04;;;;;;;;;;;;;;;;;;5114965;27;19919;-78
2023/12/10 12:55:30;;;;;;;18.05;2.85;;;;;;;;;;5131424;27;19930;-77
2023/12/10 12:57:56;;;;;;;;;;;;;;;;;;5104584;27;20035;-78
2023/12/10 13:00:22;;;;;;;23.65;3.40;;;;;;;;;;5120168;27;20010;-77
2023/12/10 13:02:48;;;;;;;;;;;;;;;;;;5114433;27;20042;-77
2023/12/10 13:05:15;;;;;;;14.40;2.63;;;;;;;;;;5148036;27;19919;-77
2023/12/10 13:07:45;;;;;;;22.38;3.55;;;;;;;;;;5131281;27;20115;-77
2023/12/10 13:10:11;;;;;;;21.05;4.00;;;;;;;;;;5123143;27;20546;-77
2023/12/10 13:12:38;;;;;;;;;;;;;;;;;;5129999;27;20503;-77
2023/12/10 13:15:04;;;;;;;19.03;3.00;;;;;;;;;;5117121;27;19919;-77
2023/12/10 13:17:30;;;;;;;22.20;3.53;;;;;;;;;;5094483;27;20285;-77
2023/12/10 13:19:56;;;;;;;;;;;;;;;;;;5125469;27;20051;-76
2023/12/10 13:22:22;;;;;;;17.35;3.30;;;;;;;;;;5121805;27;20383;-76
2023/12/10 13:24:48;;;;;;;;;;;;;;;;;;5130734;27;20042;-78
2023/12/10 13:27:16;;;;;;;18.38;2.80;;;;;;;;;;5127433;27;19927;-77
2023/12/10 13:29:42;;;;;;;23.15;3.15;;;;;;;;;;5161434;27;20047;-76
2023/12/10 13:32:08;;;;;;;16.10;3.13;;;;;;;;;;5115676;27;20051;-77
2023/12/10 13:34:34;;;;;;;25.77;3.97;;;;;;;;;;5121045;27;20065;-77
2023/12/10 13:37:01;;;;;;;20.02;3.40;;;;;;;;;;5147741;27;20066;-77
2023/12/10 13:39:27;;;;;;;16.48;3.08;;;;;;;;;;5118463;28;20042;-77
2023/12/10 13:41:59;;;;;;;26.23;4.40;;;;;;;;;;5115979;27;20099;-81
2023/12/10 13:44:25;;;;;;;;;;;;;;;;;;5135469;27;20043;-77
2023/12/10 13:46:52;;;;;;;15.33;3.07;;;;;;;;;;5111132;27;19923;-77
2023/12/10 13:49:18;;;;;;;;;;;;;;;;;;5097050;27;20284;-77
2023/12/10 13:51:53;;;;;;;17.13;2.72;;;;;;;;;;5128010;27;20284;-78
2023/12/10 13:54:25;;;;;;;23.15;3.67;;;;;;;;;;5134074;27;20064;-79
2023/12/10 13:56:53;;;;;;;19.73;3.15;;;;;;;;;;5114760;27;20111;-79
2023/12/10 13:59:19;;;;;;;22.08;3.53;;;;;;;;;;5131418;27;20142;-80
2023/12/10 14:01:45;;;;;;;22.55;3.60;;;;;;;;;;5112730;27;20045;-78
2023/12/10 14:04:11;;;;;;;;;;;;;;;;;;5134617;27;20492;-79
2023/12/10 14:06:38;;;;;;;18.45;3.08;;;;;;;;;;5115144;27;19919;-78
2023/12/10 14:09:11;;;;;;;17.42;2.78;;;;;;;;;;5121724;27;20047;-78
2023/12/10 14:11:39;;;;;;;12.80;2.35;;;;;;;;;;5115237;27;20042;-78
2023/12/10 14:14:05;;;;;;;19.70;3.00;;;;;;;;;;5097876;27;20058;-78
2023/12/10 14:16:33;;;;;;;15.13;2.90;;;;;;;;;;5115204;27;20080;-78
2023/12/10 14:19:00;;;;;;;21.50;2.75;;;;;;;;;;5097385;27;20053;-78
2023/12/10 14:21:27;;;;;;;19.85;2.60;;;;;;;;;;5110720;27;20046;-78
2023/12/10 14:23:55;;;;;;;22.50;3.35;;;;;;;;;;5130717;27;20279;-78
2023/12/10 14:26:23;;;;;;;19.35;3.78;;;;;;;;;;5133953;27;20549;-77
2023/12/10 14:28:53;;;;;;;20.67;2.90;;;;;;;;;;5100560;28;20068;-77
2023/12/10 14:31:19;;;;;;;22.60;3.00;;;;;;;;;;5126877;27;20051;-78
2023/12/10 14:33:45;;;;;;;19.77;3.15;;;;;;;;;;5098758;27;20047;-77
2023/12/10 14:36:11;;;;;;;24.38;3.83;;;;;;;;;;5115576;27;20062;-77
2023/12/10 14:38:37;;;;;;;;;;;;;;;;;;5115854;27;20130;-79
2023/12/10 14:41:04;;;;;;;22.38;3.55;;;;;;;;;;5098351;27;19920;-78
2023/12/10 14:43:30;;;;;;;21.67;3.53;;;;;;;;;;5132557;27;20492;-78
2023/12/10 14:45:56;;;;;;;;;;;;;;;;;;5115179;27;20058;-77
2023/12/10 14:48:22;;;;;;;21.17;3.28;;;;;;;;;;5131729;27;20185;-78
2023/12/10 14:50:48;;;;;;;22.77;2.88;;;;;;;;;;5126080;27;20043;-78
2023/12/10 14:53:19;;;;;;;16.58;3.08;;;;;;;;;;5113260;27;20092;-78
2023/12/10 14:55:51;;;;;;;17.38;2.80;;;;;;;;;;5132662;27;20047;-78
2023/12/10 14:58:17;;;;;;;;;;;;;;;;;;5100240;27;20569;-78
2023/12/10 15:00:44;;;;;;;17.52;2.70;;;;;;;;;;5114194;27;19919;-78
2023/12/10 15:03:10;;;;;;;16.77;2.78;;;;;;;;;;5145364;27;20068;-78
2023/12/10 15:05:38;;;;;;;29.27;3.25;;;;;;;;;;5110662;27;20092;-77
2023/12/10 15:08:12;;;;;;;17.70;3.33;;;;;;;;;;5111383;27;20479;-77
2023/12/10 15:10:40;;;;;;;21.33;3.40;;;;;;;;;;5100759;27;20048;-81
2023/12/10 15:13:09;;;;;;;18.60;3.17;;;;;;;;;;5129715;27;20073;-78